Time;durP1;ratioP1;P1;durP2;ratioP2;P2;SDS_P1;SDS_P2;PMS_P1;PMS_P2;Temp;Humidity;BMP_temperature;BMP_pressure;BME280_temperature;BME280_humidity;BME280_pressure;Samples;Min_cycle;Max_cycle;Signal;HPM_P1;HPM_P2
2023/03/06 00:00:28;;;;;;;4.47;3.90;;;;;;;1.90;100.00;100756.13;5050726;28;20665;-66
2023/03/06 00:02:54;;;;;;;5.40;4.03;;;;;;;1.86;100.00;100757.59;5057068;28;20538;-66
2023/03/06 00:05:19;;;;;;;6.03;4.13;;;;;;;1.82;100.00;100760.72;5053420;28;20028;-66
2023/03/06 00:07:45;;;;;;;5.40;4.70;;;;;;;1.79;100.00;100747.75;5059432;28;20025;-66
2023/03/06 00:10:19;;;;;;;4.37;3.93;;;;;;;1.77;100.00;100746.75;5059699;28;20016;-66
2023/03/06 00:12:44;;;;;;;4.37;3.97;;;;;;;1.75;100.00;100744.13;5048812;28;20090;-66
2023/03/06 00:15:11;;;;;;;4.67;4.27;;;;;;;1.73;100.00;100735.44;5063132;28;20041;-66
2023/03/06 00:17:37;;;;;;;5.30;4.80;;;;;;;1.70;100.00;100737.81;5055768;28;20077;-66
2023/03/06 00:20:04;;;;;;;4.63;4.13;;;;;;;1.70;100.00;100736.91;5058175;28;20032;-66
2023/03/06 00:22:30;;;;;;;5.97;4.40;;;;;;;1.68;100.00;100734.25;5066814;28;20032;-66
2023/03/06 00:24:55;;;;;;;6.13;4.80;;;;;;;1.68;100.00;100724.94;5050794;28;20306;-66
2023/03/06 00:27:20;;;;;;;5.23;4.50;;;;;;;1.67;100.00;100727.41;5056250;28;20079;-66
2023/03/06 00:29:48;;;;;;;5.40;4.40;;;;;;;1.68;100.00;100735.16;5060418;28;20024;-66
2023/03/06 00:32:14;;;;;;;6.27;4.67;;;;;;;1.67;100.00;100720.59;5060063;28;20064;-66
2023/03/06 00:34:40;;;;;;;6.33;4.63;;;;;;;1.68;100.00;100726.59;5054527;28;20037;-64
2023/03/06 00:37:06;;;;;;;7.17;4.37;;;;;;;1.68;100.00;100722.38;5057096;28;20032;-65
2023/03/06 00:39:31;;;;;;;6.13;5.53;;;;;;;1.71;100.00;100728.50;5060416;28;20114;-64
2023/03/06 00:41:57;;;;;;;7.03;5.00;;;;;;;1.70;100.00;100722.47;5061700;28;20044;-64
2023/03/06 00:44:22;;;;;;;7.10;5.10;;;;;;;1.70;100.00;100709.72;5056716;28;20035;-64
2023/03/06 00:46:47;;;;;;;5.10;4.60;;;;;;;1.71;100.00;100714.03;5049944;28;20036;-64
2023/03/06 00:49:12;;;;;;;6.20;5.30;;;;;;;1.71;100.00;100708.91;5051099;28;20013;-64
2023/03/06 00:51:38;;;;;;;6.03;5.07;;;;;;;1.70;100.00;100701.16;5055817;28;20124;-64
2023/03/06 00:54:03;;;;;;;7.73;6.10;;;;;;;1.70;100.00;100702.03;5050584;28;20024;-64
2023/03/06 00:56:28;;;;;;;8.27;5.77;;;;;;;1.70;100.00;100707.16;5066316;28;20487;-64
2023/03/06 00:58:54;;;;;;;6.83;6.10;;;;;;;1.69;100.00;100695.19;5050127;28;20021;-64
2023/03/06 01:01:20;;;;;;;7.83;6.10;;;;;;;1.66;100.00;100695.84;5057813;28;20083;-66
2023/03/06 01:03:45;;;;;;;9.20;6.73;;;;;;;1.64;100.00;100697.41;5052166;28;20095;-66
2023/03/06 01:06:11;;;;;;;7.23;6.47;;;;;;;1.62;100.00;100688.75;5055261;28;20021;-64
2023/03/06 01:08:36;;;;;;;8.53;6.43;;;;;;;1.59;100.00;100692.78;5057481;28;20025;-64
2023/03/06 01:11:01;;;;;;;9.00;7.10;;;;;;;1.58;100.00;100691.00;5048463;28;20029;-64
2023/03/06 01:13:27;;;;;;;8.73;6.37;;;;;;;1.55;100.00;100689.13;5048915;28;20029;-65
2023/03/06 01:15:52;;;;;;;8.63;6.03;;;;;;;1.54;100.00;100684.81;5062477;28;20385;-65
2023/03/06 01:18:17;;;;;;;9.17;6.43;;;;;;;1.52;100.00;100686.38;5051819;28;20040;-65
2023/03/06 01:20:43;;;;;;;9.70;7.63;;;;;;;1.51;100.00;100687.19;5059729;28;20036;-65
2023/03/06 01:23:08;;;;;;;9.57;6.87;;;;;;;1.48;100.00;100686.94;5057897;28;20029;-65
2023/03/06 01:25:33;;;;;;;8.73;7.10;;;;;;;1.48;100.00;100685.28;5063766;28;20028;-65
2023/03/06 01:27:58;;;;;;;7.90;6.37;;;;;;;1.48;100.00;100684.38;5052746;28;20048;-65
2023/03/06 01:30:24;;;;;;;8.07;6.37;;;;;;;1.48;100.00;100684.38;5060374;28;20021;-65
2023/03/06 01:32:49;;;;;;;8.30;6.93;;;;;;;1.46;100.00;100688.53;5064126;28;20028;-65
2023/03/06 01:35:14;;;;;;;9.27;7.37;;;;;;;1.46;100.00;100683.44;5059355;28;20024;-65
2023/03/06 01:37:40;;;;;;;9.53;6.90;;;;;;;1.41;100.00;100678.00;5052725;28;20032;-65
2023/03/06 01:40:08;;;;;;;9.47;7.30;;;;;;;1.40;100.00;100681.34;5052276;28;20025;-65
2023/03/06 01:42:33;;;;;;;10.10;6.97;;;;;;;1.36;100.00;100677.69;5060310;28;20070;-65
2023/03/06 01:45:34;;;;;;;8.47;7.10;;;;;;;1.33;100.00;100674.06;5060654;28;20399;-65
2023/03/06 01:47:59;;;;;;;9.63;6.97;;;;;;;1.28;100.00;100676.28;5054909;28;20031;-65
2023/03/06 01:50:24;;;;;;;7.27;6.47;;;;;;;1.24;100.00;100669.22;5055712;28;20770;-65
2023/03/06 01:52:55;;;;;;;8.47;7.00;;;;;;;1.22;100.00;100656.34;5063218;28;20036;-65
2023/03/06 01:55:31;;;;;;;9.67;7.00;;;;;;;1.16;100.00;100661.94;5064051;28;20032;-65
2023/03/06 01:58:02;;;;;;;11.00;7.47;;;;;;;1.14;100.00;100662.59;5056284;28;20029;-65
2023/03/06 02:00:28;;;;;;;9.10;7.37;;;;;;;1.12;100.00;100659.03;5054156;28;20063;-65
2023/03/06 02:02:58;;;;;;;9.83;7.60;;;;;;;1.05;100.00;100657.75;5056481;28;20671;-65
2023/03/06 02:05:23;;;;;;;8.65;7.32;;;;;;;0.94;100.00;100657.03;5062504;28;20094;-65
2023/03/06 02:07:49;;;;;;;9.07;6.87;;;;;;;0.83;100.00;100643.53;5052730;28;20087;-65
2023/03/06 02:10:17;;;;;;;9.23;7.17;;;;;;;0.71;100.00;100641.03;5055517;28;20104;-65
2023/03/06 02:12:43;;;;;;;9.83;7.03;;;;;;;0.64;100.00;100646.47;5057950;28;20040;-65
2023/03/06 02:15:13;;;;;;;9.37;7.70;;;;;;;0.59;100.00;100641.94;5052352;28;20103;-65
2023/03/06 02:17:41;;;;;;;7.55;6.57;;;;;;;0.53;100.00;100636.44;5057203;28;20076;-65
2023/03/06 02:20:10;;;;;;;10.27;7.57;;;;;;;0.49;100.00;100643.78;5053662;28;20016;-65
2023/03/06 02:22:45;;;;;;;11.17;7.93;;;;;;;0.43;100.00;100634.88;5046635;28;20473;-65
2023/03/06 02:25:34;;;;;;;9.00;7.33;;;;;;;0.40;100.00;100624.47;5065765;28;20029;-65
2023/03/06 02:28:00;;;;;;;9.93;7.57;;;;;;;0.39;100.00;100627.81;5053340;28;20380;-65
2023/03/06 02:30:27;;;;;;;10.53;7.47;;;;;;;0.40;100.00;100621.03;5053280;28;20101;-64
2023/03/06 02:32:53;;;;;;;9.87;7.33;;;;;;;0.39;100.00;100617.63;5061579;28;20074;-65
2023/03/06 02:35:30;;;;;;;10.90;8.20;;;;;;;0.37;100.00;100614.06;5061194;28;20032;-65
2023/03/06 02:38:01;;;;;;;9.37;7.77;;;;;;;0.38;100.00;100622.63;5052390;28;20036;-65
2023/03/06 02:40:26;;;;;;;8.82;7.15;;;;;;;0.38;100.00;100607.31;5055618;28;20063;-65
2023/03/06 02:42:57;;;;;;;9.30;8.07;;;;;;;0.30;100.00;100605.13;5057390;28;20925;-64
2023/03/06 02:45:30;;;;;;;10.52;7.95;;;;;;;0.25;100.00;100603.03;5065972;28;20031;-64
2023/03/06 02:47:56;;;;;;;8.60;7.80;;;;;;;0.20;100.00;100606.13;5051261;28;20440;-65
2023/03/06 02:50:21;;;;;;;10.13;7.30;;;;;;;0.17;100.00;100600.81;5057908;28;20029;-64
2023/03/06 02:52:47;;;;;;;9.33;7.40;;;;;;;0.16;100.00;100609.25;5056729;28;20025;-64
2023/03/06 02:55:12;;;;;;;11.33;7.03;;;;;;;0.13;100.00;100603.06;5060652;28;20075;-64
2023/03/06 02:57:37;;;;;;;8.80;7.43;;;;;;;0.10;100.00;100593.50;5062495;28;20033;-64
2023/03/06 03:00:04;;;;;;;11.30;8.03;;;;;;;0.08;100.00;100600.16;5050215;28;20035;-64
2023/03/06 03:02:29;;;;;;;8.60;7.60;;;;;;;0.05;100.00;100599.94;5060383;28;20032;-64
2023/03/06 03:04:54;;;;;;;10.80;8.00;;;;;;;0.03;100.00;100593.84;5051791;28;20039;-64
2023/03/06 03:07:19;;;;;;;10.33;7.30;;;;;;;0.05;100.00;100605.06;5057294;28;20030;-65
2023/03/06 03:09:45;;;;;;;11.10;7.30;;;;;;;-0.01;100.00;100592.75;5065604;28;20020;-64
2023/03/06 03:12:10;;;;;;;9.47;7.47;;;;;;;-0.07;100.00;100585.56;5049935;28;20025;-65
2023/03/06 03:14:35;;;;;;;8.70;7.23;;;;;;;-0.11;100.00;100593.78;5052072;28;20031;-64
2023/03/06 03:17:01;;;;;;;8.63;7.17;;;;;;;-0.18;100.00;100587.34;5060535;28;20412;-65
2023/03/06 03:19:27;;;;;;;10.00;7.60;;;;;;;-0.23;100.00;100582.72;5050337;28;20461;-64
2023/03/06 03:21:52;;;;;;;10.03;8.03;;;;;;;-0.27;100.00;100590.09;5063808;28;20036;-64
2023/03/06 03:24:17;;;;;;;8.43;6.80;;;;;;;-0.31;100.00;100588.13;5057294;28;20095;-64
2023/03/06 03:26:43;;;;;;;9.80;8.43;;;;;;;-0.37;100.00;100585.13;5059653;28;20033;-64
2023/03/06 03:29:09;;;;;;;11.17;8.43;;;;;;;-0.44;100.00;100583.81;5058044;28;20036;-64
2023/03/06 03:31:35;;;;;;;10.87;7.87;;;;;;;-0.49;100.00;100578.38;5057015;28;20077;-65
2023/03/06 03:34:01;;;;;;;11.43;7.00;;;;;;;-0.52;100.00;100577.28;5057746;28;20033;-64
2023/03/06 03:36:27;;;;;;;9.03;6.83;;;;;;;-0.61;100.00;100575.81;5052334;28;20465;-64
2023/03/06 03:38:53;;;;;;;9.37;7.53;;;;;;;-0.65;100.00;100572.94;5056084;28;20453;-64
2023/03/06 03:41:18;;;;;;;9.33;7.47;;;;;;;-0.68;100.00;100571.06;5061349;28;20072;-64
2023/03/06 03:43:43;;;;;;;10.17;7.53;;;;;;;-0.72;100.00;100564.00;5066601;28;20032;-64
2023/03/06 03:46:08;;;;;;;15.07;8.03;;;;;;;-0.74;100.00;100568.94;5060884;28;20032;-64
2023/03/06 03:48:34;;;;;;;11.93;8.60;;;;;;;-0.76;100.00;100560.34;5055418;28;20095;-64
2023/03/06 03:51:11;;;;;;;9.90;8.13;;;;;;;-0.78;100.00;100550.81;5062092;28;20484;-64
2023/03/06 03:53:37;;;;;;;11.27;9.30;;;;;;;-0.73;100.00;100547.81;5065722;28;20040;-64
2023/03/06 03:56:03;;;;;;;11.90;8.73;;;;;;;-0.70;100.00;100539.50;5051292;28;20052;-64
2023/03/06 03:58:29;;;;;;;12.77;9.20;;;;;;;-0.67;100.00;100544.84;5048947;28;20037;-64
2023/03/06 04:00:54;;;;;;;13.93;10.70;;;;;;;-0.64;100.00;100539.06;5060469;28;20040;-64
2023/03/06 04:03:19;;;;;;;16.53;11.10;;;;;;;-0.63;100.00;100533.22;5062646;28;20101;-64
2023/03/06 04:05:45;;;;;;;15.07;10.60;;;;;;;-0.63;100.00;100531.53;5052552;28;20587;-64
2023/03/06 04:08:10;;;;;;;17.63;12.43;;;;;;;-0.61;100.00;100530.00;5066542;28;20554;-64
2023/03/06 04:10:37;;;;;;;18.10;11.73;;;;;;;-0.61;100.00;100518.91;5052762;28;20170;-64
2023/03/06 04:13:03;;;;;;;18.93;12.77;;;;;;;-0.58;100.00;100526.81;5062591;28;20396;-64
2023/03/06 04:15:28;;;;;;;20.77;13.20;;;;;;;-0.54;100.00;100523.69;5062069;28;20047;-64
2023/03/06 04:17:53;;;;;;;20.57;13.40;;;;;;;-0.52;100.00;100527.22;5053633;28;20025;-64
2023/03/06 04:20:19;;;;;;;21.43;14.53;;;;;;;-0.52;100.00;100524.69;5060507;28;20384;-64
2023/03/06 04:22:44;;;;;;;20.63;14.37;;;;;;;-0.47;100.00;100531.78;5066709;28;20024;-64
2023/03/06 04:25:09;;;;;;;21.33;13.57;;;;;;;-0.45;100.00;100522.59;5057381;28;20032;-65
2023/03/06 04:27:35;;;;;;;27.17;16.60;;;;;;;-0.43;100.00;100518.50;5061044;28;20028;-65
2023/03/06 04:30:00;;;;;;;23.83;15.13;;;;;;;-0.41;100.00;100511.81;5061916;28;20120;-64
2023/03/06 04:32:26;;;;;;;21.03;14.70;;;;;;;-0.38;100.00;100517.16;5059594;28;20488;-64
2023/03/06 04:34:51;;;;;;;21.33;14.00;;;;;;;-0.38;100.00;100515.47;5062018;28;20024;-64
2023/03/06 04:37:22;;;;;;;22.83;15.10;;;;;;;-0.37;100.00;100511.28;5065917;28;20028;-64
2023/03/06 04:39:48;;;;;;;23.73;14.82;;;;;;;-0.35;100.00;100511.38;5059241;28;20051;-64
2023/03/06 04:42:13;;;;;;;24.47;15.70;;;;;;;-0.35;100.00;100504.63;5061556;28;20032;-64
2023/03/06 04:44:39;;;;;;;20.90;15.33;;;;;;;-0.34;100.00;100508.09;5058130;28;20062;-64
2023/03/06 04:47:04;;;;;;;25.27;15.40;;;;;;;-0.32;100.00;100509.94;5054466;28;20056;-64
2023/03/06 04:49:29;;;;;;;21.67;15.10;;;;;;;-0.29;100.00;100507.59;5052014;28;20027;-64
2023/03/06 04:51:55;;;;;;;22.20;15.17;;;;;;;-0.26;100.00;100502.75;5059560;28;20066;-64
2023/03/06 04:54:20;;;;;;;23.70;14.67;;;;;;;-0.23;100.00;100501.19;5051051;28;20025;-64
2023/03/06 04:56:45;;;;;;;25.77;16.23;;;;;;;-0.22;100.00;100500.41;5048144;28;20473;-64
2023/03/06 04:59:12;;;;;;;25.67;15.50;;;;;;;-0.20;100.00;100509.06;5057998;28;20135;-64
2023/03/06 05:01:37;;;;;;;22.73;15.03;;;;;;;-0.20;100.00;100497.22;5048393;28;20117;-64
2023/03/06 05:04:02;;;;;;;28.87;17.80;;;;;;;-0.18;100.00;100499.84;5059932;28;20040;-64
2023/03/06 05:06:28;;;;;;;26.53;16.77;;;;;;;-0.16;100.00;100495.72;5056785;28;20536;-64
2023/03/06 05:08:53;;;;;;;23.30;15.47;;;;;;;-0.14;100.00;100499.28;5062032;28;20039;-64
2023/03/06 05:11:19;;;;;;;25.90;17.43;;;;;;;-0.13;100.00;100501.94;5048405;28;20427;-64
2023/03/06 05:13:44;;;;;;;25.60;17.47;;;;;;;-0.12;100.00;100495.19;5047840;28;20044;-64
2023/03/06 05:16:09;;;;;;;27.73;17.23;;;;;;;-0.13;100.00;100493.41;5060152;28;20808;-64
2023/03/06 05:18:36;;;;;;;28.57;18.13;;;;;;;-0.13;100.00;100493.41;5053524;28;20020;-64
2023/03/06 05:21:03;;;;;;;27.37;18.13;;;;;;;-0.11;100.00;100489.31;5053196;28;20033;-64
2023/03/06 05:23:29;;;;;;;28.57;17.23;;;;;;;-0.11;100.00;100489.31;5055176;28;20396;-64
2023/03/06 05:25:56;;;;;;;36.60;18.10;;;;;;;-0.10;100.00;100482.53;5049081;28;20461;-64
2023/03/06 05:28:21;;;;;;;27.33;18.60;;;;;;;-0.09;100.00;100477.53;5053452;28;20453;-64
2023/03/06 05:30:47;;;;;;;31.20;18.07;;;;;;;-0.08;100.00;100481.88;5058722;28;20116;-65
2023/03/06 05:33:12;;;;;;;29.23;18.47;;;;;;;-0.07;100.00;100476.00;5051719;28;20074;-65
2023/03/06 05:35:38;;;;;;;28.90;17.53;;;;;;;-0.08;100.00;100476.78;5059370;28;20460;-65
2023/03/06 05:38:03;;;;;;;32.20;18.97;;;;;;;-0.07;100.00;100473.44;5063151;28;20028;-65
2023/03/06 05:40:28;;;;;;;30.67;19.27;;;;;;;-0.06;100.00;100477.78;5065902;28;20461;-65
2023/03/06 05:42:54;;;;;;;29.97;19.87;;;;;;;-0.05;100.00;100477.00;5048967;28;20505;-65
2023/03/06 05:45:20;;;;;;;30.83;18.70;;;;;;;-0.05;100.00;100471.91;5047534;28;20029;-65
2023/03/06 05:47:45;;;;;;;29.27;18.10;;;;;;;-0.04;100.00;100477.88;5056286;28;20053;-65
2023/03/06 05:50:12;;;;;;;31.87;19.67;;;;;;;-0.03;100.00;100474.53;5061126;28;20016;-65
2023/03/06 05:52:38;;;;;;;35.20;19.97;;;;;;;-0.05;100.00;100471.91;5058965;28;20056;-65
2023/03/06 05:55:04;;;;;;;30.90;18.33;;;;;;;-0.04;100.00;100472.78;5058874;28;20258;-65
2023/03/06 05:57:30;;;;;;;28.87;18.47;;;;;;;-0.01;100.00;100473.88;5056504;28;20112;-65
2023/03/06 05:59:55;;;;;;;30.83;18.73;;;;;;;0.00;100.00;100464.59;5063788;28;20028;-65
2023/03/06 06:02:21;;;;;;;30.63;19.47;;;;;;;0.01;100.00;100460.34;5063228;28;20025;-65
2023/03/06 06:04:46;;;;;;;32.07;19.60;;;;;;;0.00;100.00;100462.03;5057158;28;20029;-65
2023/03/06 06:07:16;;;;;;;31.90;20.63;;;;;;;0.02;100.00;100462.16;5056854;28;20023;-65
2023/03/06 06:09:44;;;;;;;31.80;20.07;;;;;;;0.03;100.00;100463.91;5065221;28;20074;-65
2023/03/06 06:12:10;;;;;;;30.43;20.07;;;;;;;0.06;100.00;100474.28;5058813;28;20481;-65
2023/03/06 06:14:35;;;;;;;30.63;19.00;;;;;;;0.09;100.00;100469.44;5061159;28;20027;-65
2023/03/06 06:17:01;;;;;;;31.27;20.07;;;;;;;0.09;100.00;100466.88;5059141;28;20024;-65
2023/03/06 06:19:30;;;;;;;30.33;19.53;;;;;;;0.10;100.00;100466.09;5059304;28;20035;-65
2023/03/06 06:21:56;;;;;;;30.97;18.70;;;;;;;0.11;100.00;100468.75;5056205;28;20070;-65
2023/03/06 06:24:24;;;;;;;31.63;20.60;;;;;;;0.14;100.00;100462.97;5060221;28;20028;-65
2023/03/06 06:26:51;;;;;;;32.27;20.20;;;;;;;0.14;100.00;100465.53;5057542;28;20024;-65
2023/03/06 06:29:17;;;;;;;29.70;19.07;;;;;;;0.15;100.00;100469.84;5064852;28;20115;-65
2023/03/06 06:31:42;;;;;;;31.83;19.97;;;;;;;0.15;100.00;100464.72;5056158;28;20558;-65
2023/03/06 06:34:09;;;;;;;32.23;19.97;;;;;;;0.18;100.00;100464.06;5060240;28;20028;-65
2023/03/06 06:36:34;;;;;;;33.10;21.03;;;;;;;0.19;100.00;100464.19;5065395;28;20056;-65
2023/03/06 06:39:00;;;;;;;32.50;20.90;;;;;;;0.19;100.00;100459.06;5057589;28;20056;-65
2023/03/06 06:41:26;;;;;;;33.30;20.53;;;;;;;0.21;100.00;100465.16;5061183;28;20067;-65
2023/03/06 06:43:51;;;;;;;30.27;20.37;;;;;;;0.22;100.00;100464.38;5054392;28;20032;-65
2023/03/06 06:46:17;;;;;;;30.77;18.70;;;;;;;0.23;100.00;100463.59;5058040;28;20039;-65
2023/03/06 06:48:42;;;;;;;33.03;20.03;;;;;;;0.26;100.00;100465.47;5058230;28;20025;-65
2023/03/06 06:51:08;;;;;;;32.03;20.33;;;;;;;0.28;100.00;100466.47;5058359;28;20056;-65
2023/03/06 06:53:33;;;;;;;32.23;20.70;;;;;;;0.29;100.00;100464.81;5060280;28;20799;-65
2023/03/06 06:55:58;;;;;;;35.20;20.37;;;;;;;0.28;100.00;100461.38;5060860;28;20047;-65
2023/03/06 06:58:24;;;;;;;34.53;21.10;;;;;;;0.29;100.00;100462.25;5062756;28;20484;-65
2023/03/06 07:00:50;;;;;;;34.90;21.23;;;;;;;0.29;100.00;100463.13;5066095;28;20229;-65
2023/03/06 07:03:15;;;;;;;35.50;21.50;;;;;;;0.31;100.00;100463.22;5054140;28;20086;-65
2023/03/06 07:05:41;;;;;;;34.50;20.83;;;;;;;0.32;100.00;100463.34;5058663;28;20224;-65
2023/03/06 07:08:06;;;;;;;30.23;20.13;;;;;;;0.36;100.00;100466.97;5061504;28;20115;-65
2023/03/06 07:10:32;;;;;;;32.27;20.87;;;;;;;0.40;100.00;100471.50;5056456;28;20033;-65
2023/03/06 07:12:58;;;;;;;32.33;19.97;;;;;;;0.43;100.00;100476.78;5066629;28;20040;-65
2023/03/06 07:15:25;;;;;;;33.10;21.67;;;;;;;0.45;100.00;100482.88;5063359;28;20435;-65
2023/03/06 07:17:52;;;;;;;36.23;21.93;;;;;;;0.47;100.00;100476.22;5066195;28;20477;-65
2023/03/06 07:20:18;;;;;;;33.07;20.23;;;;;;;0.51;100.00;100473.88;5061337;28;20039;-65
2023/03/06 07:22:44;;;;;;;35.77;21.70;;;;;;;0.53;100.00;100479.97;5057341;28;20041;-65
2023/03/06 07:25:10;;;;;;;37.60;22.63;;;;;;;0.54;100.00;100489.41;5056626;28;20085;-65
2023/03/06 07:27:35;;;;;;;33.23;21.83;;;;;;;0.58;100.00;100487.16;5059466;28;20055;-65
2023/03/06 07:30:00;;;;;;;32.30;21.73;;;;;;;0.62;100.00;100482.25;5055698;28;20060;-64
2023/03/06 07:32:26;;;;;;;37.10;23.70;;;;;;;0.64;100.00;100476.47;5064440;28;20422;-65
2023/03/06 07:34:51;;;;;;;37.53;23.23;;;;;;;0.67;100.00;100476.69;5057407;28;20512;-65
2023/03/06 07:37:16;;;;;;;38.83;22.63;;;;;;;0.73;100.00;100475.31;5054262;28;20090;-65
2023/03/06 07:39:41;;;;;;;36.73;23.17;;;;;;;0.76;100.00;100472.94;5057928;28;20028;-65
2023/03/06 07:42:11;;;;;;;36.70;23.00;;;;;;;0.82;100.00;100470.81;5058194;28;20518;-65
2023/03/06 07:44:37;;;;;;;39.63;24.03;;;;;;;0.88;100.00;100465.25;5059898;28;20035;-65
2023/03/06 07:47:04;;;;;;;35.10;22.73;;;;;;;0.93;100.00;100474.97;5057314;28;20025;-65
2023/03/06 07:49:29;;;;;;;38.50;23.70;;;;;;;1.02;100.00;100473.78;5057674;28;20463;-65
2023/03/06 07:51:55;;;;;;;37.57;24.57;;;;;;;1.06;100.00;100465.56;5052595;28;20045;-65
2023/03/06 07:54:20;;;;;;;40.20;25.23;;;;;;;1.14;100.00;100482.25;5057892;28;20399;-65
2023/03/06 07:56:49;;;;;;;36.37;22.90;;;;;;;1.17;100.00;100479.88;5058674;28;20484;-65
2023/03/06 07:59:14;;;;;;;34.47;23.00;;;;;;;1.19;100.00;100477.41;5057905;28;20039;-65
2023/03/06 08:01:39;;;;;;;35.43;22.77;;;;;;;1.19;100.00;100485.06;5054672;28;20058;-65
2023/03/06 08:04:05;;;;;;;39.07;23.30;;;;;;;1.18;100.00;100481.66;5058725;28;20103;-65
2023/03/06 08:06:31;;;;;;;38.33;24.87;;;;;;;1.19;100.00;100480.88;5060654;28;20032;-65
2023/03/06 08:08:56;;;;;;;37.33;23.30;;;;;;;1.19;100.00;100485.97;5059615;28;20477;-65
2023/03/06 08:11:25;;;;;;;41.23;26.43;;;;;;;1.22;100.00;100481.84;5058855;28;20040;-65
2023/03/06 08:13:51;;;;;;;36.80;24.03;;;;;;;1.26;100.00;100483.81;5058115;28;20250;-65
2023/03/06 08:16:19;;;;;;;38.20;23.87;;;;;;;1.29;100.00;100479.81;5061557;28;20029;-65
2023/03/06 08:18:45;;;;;;;39.63;24.80;;;;;;;1.36;100.00;100475.97;5050586;28;20028;-65
2023/03/06 08:21:15;;;;;;;39.20;24.00;;;;;;;1.41;100.00;100482.25;5062553;28;20040;-65
2023/03/06 08:23:41;;;;;;;38.05;24.73;;;;;;;1.46;100.00;100481.66;5059077;28;20029;-65
2023/03/06 08:26:10;;;;;;;37.77;22.97;;;;;;;1.51;100.00;100482.84;5055985;28;20064;-65
2023/03/06 08:28:36;;;;;;;36.07;22.73;;;;;;;1.55;100.00;100480.56;5050806;28;20065;-65
2023/03/06 08:31:24;;;;;;;32.53;22.97;;;;;;;1.57;100.00;100483.19;5057477;28;20025;-65
2023/03/06 08:33:50;;;;;;;38.50;22.83;;;;;;;1.59;100.00;100486.75;5059398;28;20032;-65
2023/03/06 08:36:15;;;;;;;37.33;22.10;;;;;;;1.59;100.00;100479.06;5061106;28;20025;-65
2023/03/06 08:38:40;;;;;;;30.30;20.13;;;;;;;1.58;100.00;100479.88;5055586;28;20032;-65
2023/03/06 08:41:06;;;;;;;33.83;23.07;;;;;;;1.66;100.00;100476.13;5059631;28;20081;-65
2023/03/06 08:43:31;;;;;;;39.17;23.30;;;;;;;1.93;100.00;100480.28;5057317;28;20494;-65
2023/03/06 08:45:57;;;;;;;31.63;22.53;;;;;;;2.12;100.00;100484.84;5059174;28;20028;-65
2023/03/06 08:48:23;;;;;;;33.60;22.93;;;;;;;2.26;100.00;100484.81;5061135;28;20021;-65
2023/03/06 08:50:49;;;;;;;36.03;22.23;;;;;;;2.50;100.00;100484.50;5061456;28;20041;-65
2023/03/06 08:53:14;;;;;;;34.20;23.10;;;;;;;2.94;100.00;100482.75;5056908;28;20039;-65
2023/03/06 08:55:40;;;;;;;28.30;20.73;;;;;;;3.36;100.00;100477.41;5055383;28;20036;-65
2023/03/06 08:58:05;;;;;;;24.60;18.63;;;;;;;3.57;100.00;100481.97;5058226;28;20076;-65
2023/03/06 09:00:31;;;;;;;25.23;18.30;;;;;;;3.63;100.00;100478.88;5055601;28;20070;-65
2023/03/06 09:02:57;;;;;;;25.80;18.87;;;;;;;3.67;100.00;100483.34;5059383;28;20407;-65
2023/03/06 09:05:22;;;;;;;27.63;19.17;;;;;;;3.67;100.00;100487.59;5055567;28;20488;-65
2023/03/06 09:07:48;;;;;;;23.57;18.43;;;;;;;3.62;100.00;100491.59;5053080;28;20064;-65
2023/03/06 09:10:19;;;;;;;26.43;18.07;;;;;;;3.51;100.00;100486.75;5054505;28;20043;-65
2023/03/06 09:12:44;;;;;;;22.48;17.70;;;;;;;3.46;100.00;100483.03;5052521;28;20055;-65
2023/03/06 09:15:11;;;;;;;24.43;18.13;;;;;;;3.43;100.00;100483.78;5057290;28;20076;-65
2023/03/06 09:17:37;;;;;;;23.33;18.03;;;;;;;3.42;100.00;100482.00;5053575;28;20024;-65
2023/03/06 09:20:03;;;;;;;22.80;16.97;;;;;;;3.42;100.00;100491.38;5056661;28;20488;-65
2023/03/06 09:22:28;;;;;;;21.77;17.20;;;;;;;3.38;100.00;100489.44;5055122;28;20025;-65
2023/03/06 09:24:53;;;;;;;24.57;17.37;;;;;;;3.37;100.00;100488.53;5056371;28;20024;-65
2023/03/06 09:27:18;;;;;;;21.80;17.17;;;;;;;3.37;100.00;100491.09;5055175;28;20617;-65
2023/03/06 09:29:44;;;;;;;20.57;16.27;;;;;;;3.35;100.00;100495.25;5054643;28;20044;-65
2023/03/06 09:32:09;;;;;;;22.47;17.10;;;;;;;3.36;100.00;100492.78;5054214;28;20032;-65
2023/03/06 09:34:34;;;;;;;22.90;15.97;;;;;;;3.35;100.00;100491.03;5057614;28;20029;-65
2023/03/06 09:37:02;;;;;;;19.87;15.67;;;;;;;3.38;100.00;100494.56;5065136;28;20037;-65
2023/03/06 09:39:27;;;;;;;22.37;16.50;;;;;;;3.35;100.00;100491.03;5062560;28;20110;-65
2023/03/06 09:41:54;;;;;;;22.37;14.83;;;;;;;3.34;100.00;100493.50;5048858;28;20040;-65
2023/03/06 09:44:24;;;;;;;21.10;14.17;;;;;;;3.32;100.00;100490.84;5054337;28;20039;-65
2023/03/06 09:46:59;;;;;;;20.13;15.40;;;;;;;3.30;100.00;100495.00;5053538;28;20439;-65
2023/03/06 09:49:33;;;;;;;19.00;14.97;;;;;;;3.29;100.00;100489.81;5053871;28;20119;-65
2023/03/06 09:52:30;;;;;;;21.17;15.77;;;;;;;3.31;100.00;100493.34;5061192;28;20546;-65
2023/03/06 09:54:55;;;;;;;22.70;15.70;;;;;;;3.31;100.00;100491.63;5057182;28;20115;-65
2023/03/06 09:57:25;;;;;;;18.43;14.40;;;;;;;3.27;100.00;100502.53;5051522;28;20317;-65
2023/03/06 09:59:54;;;;;;;21.57;15.90;;;;;;;3.24;100.00;100503.22;5057843;28;20089;-65
2023/03/06 10:02:29;;;;;;;19.03;14.83;;;;;;;3.24;100.00;100502.34;5047258;28;20028;-65
2023/03/06 10:05:00;;;;;;;19.80;14.33;;;;;;;3.24;100.00;100504.91;5057939;28;21096;-65
2023/03/06 10:07:55;;;;;;;22.23;15.40;;;;;;;3.23;100.00;100496.34;5054083;28;20028;-65
2023/03/06 10:10:24;;;;;;;17.70;14.80;;;;;;;3.24;100.00;100486.97;5049676;28;20048;-65
2023/03/06 10:13:01;;;;;;;22.43;15.27;;;;;;;3.26;100.00;100493.06;5053608;28;20055;-65
2023/03/06 10:15:32;;;;;;;17.20;13.10;;;;;;;3.27;100.00;100486.28;5053347;28;20032;-65
2023/03/06 10:17:57;;;;;;;16.50;13.30;;;;;;;3.28;100.00;100485.47;5059912;28;20167;-65
2023/03/06 10:20:24;;;;;;;18.27;13.30;;;;;;;3.29;100.00;100484.69;5053592;28;20035;-65
2023/03/06 10:23:04;;;;;;;20.03;14.80;;;;;;;3.29;100.00;100489.81;5060586;28;20832;-65
2023/03/06 10:25:45;;;;;;;17.73;13.77;;;;;;;3.31;100.00;100478.84;5057796;28;20075;-65
2023/03/06 10:28:18;;;;;;;17.35;13.98;;;;;;;3.35;100.00;100485.91;5059042;28;20454;-65
2023/03/06 10:30:47;;;;;;;16.07;12.23;;;;;;;3.43;100.00;100475.19;5054260;28;20503;-65
2023/03/06 10:33:29;;;;;;;17.92;13.90;;;;;;;3.52;100.00;100485.06;5055435;28;20036;-65
2023/03/06 10:35:55;;;;;;;14.93;11.97;;;;;;;3.62;100.00;100474.53;5053800;28;20374;-64
2023/03/06 10:38:21;;;;;;;14.73;11.50;;;;;;;3.70;100.00;100467.25;5055908;28;20107;-65
2023/03/06 10:41:15;;;;;;;15.53;12.37;;;;;;;3.78;100.00;100468.53;5050790;28;20028;-65
2023/03/06 10:44:04;;;;;;;16.60;12.55;;;;;;;3.87;100.00;100472.41;5056743;28;20062;-66
2023/03/06 10:46:32;;;;;;;16.70;12.73;;;;;;;3.95;100.00;100473.69;5058331;28;20037;-66
2023/03/06 10:49:00;;;;;;;16.57;12.20;;;;;;;4.01;100.00;100463.75;5056513;28;20024;-66
2023/03/06 10:51:26;;;;;;;14.20;12.03;;;;;;;4.10;100.00;100468.50;5053589;28;20485;-65
2023/03/06 10:54:01;;;;;;;16.25;12.40;;;;;;;4.18;100.00;100469.78;5056606;28;20111;-66
2023/03/06 10:56:33;;;;;;;15.52;11.95;;;;;;;4.28;100.00;100466.00;5055477;28;20115;-66
2023/03/06 10:59:13;;;;;;;12.85;10.93;;;;;;;4.40;100.00;100467.44;5058552;28;20497;-66
2023/03/06 11:01:44;;;;;;;12.57;10.27;;;;;;;4.46;100.00;100475.47;5059686;28;20483;-66
2023/03/06 11:04:24;;;;;;;13.18;10.82;;;;;;;4.47;100.00;100474.66;5056660;28;20036;-66
2023/03/06 11:07:12;;;;;;;12.45;10.45;;;;;;;4.49;100.00;100487.56;5063094;28;20158;-66
2023/03/06 11:09:38;;;;;;;14.57;11.25;;;;;;;4.53;100.00;100480.06;5058648;28;20044;-66
2023/03/06 11:12:19;;;;;;;15.95;11.48;;;;;;;4.51;100.00;100480.81;5054521;28;20043;-66